Airfield :
LOGIN :

Register | Disclaimer

   EN    FR    IT 

 










Legend :    VFR   Marginal VFR   IFR   Intensive IFR   Very Intensive IFR
Visi :
Ceiling :
>= 8 km
>= 3000ft
5 to 8 km
1000 to 3000 ft
1500m to 5 km
500 to 1000 ft
800 to 1500m
200 to 500 ft
< 800m
< 200 ft
Symbols :   Thunderstorms  Fog  Heavy snow  Heavy precipitations  Wind > 20 kt
SIGMETs :     Misc.  Thunderstorms  Icing  Turbulence  Mountain Waves  Volcanic Ashes







- Airport Elevation : 3 ft
- IATA code : LWR


EHLW - Leuuwarden Air Base

CURRENT METAR :
  • 220025Z AUTO 09009KT 030V140 9999 OVC230 16/12 Q1011 BLU

EXPIRED METARs :
  • 212355Z AUTO 09009KT 030V150 9999 BKN070 OVC079 16/12 Q1011 BLU
  • 212325Z AUTO 09010KT 010V150 9999 FEW072 SCT081 OVC270 16/12 Q1011 BLU
  • 212255Z AUTO 09010KT 030V190 9999 OVC250 16/13 Q1012 BLU
  • 212225Z AUTO 08008KT 010V120 9999 OVC250 16/13 Q1012 BLU
  • 212155Z AUTO 08008KT 030V130 9999 OVC270 16/13 Q1012 BLU

TAF TAF EHLW
Valid from the 21 at 13:00 until the 22 at 01:00 UTC


211201Z 2113/2201 18007KT 9999 SCT035
BECMG 2114/2116 14008KT
BECMG 2118/2120 09008KT
No reported NOTAMs for that airfield.



MET'MAP, your aeronautical weather chart ! - Copyright ORBIFLY December 2007 - Disclaimer

ORBIFLY MET'MAP TEAM :

Programming & Development : Alexandra Zaïnal
Concept & Development : Baudouin d'Aumeries
Co-Development & Prog : Marc-Olivier Méhu
Technical & hardware support : Manuel Goepfert

Contact : metmap@orbifly.com




SOURCES & CREDITS :

   NOAA